Time;durP1;ratioP1;P1;durP2;ratioP2;P2;SDS_P1;SDS_P2;PMS_P1;PMS_P2;Temp;Humidity;BMP_temperature;BMP_pressure;BME280_temperature;BME280_humidity;BME280_pressure;Samples;Min_cycle;Max_cycle;Signal;HPM_P1;HPM_P2
2022/06/11 00:01:12;;;;;;;8.13;3.53;;;16.40;99.90;;;;;;4675291;28;9999973;-81
2022/06/11 00:03:38;;;;;;;6.95;3.90;;;16.40;99.90;;;;;;5020861;28;20030;-81
2022/06/11 00:06:04;;;;;;;10.63;3.92;;;16.30;99.90;;;;;;5020144;28;20068;-81
2022/06/11 00:08:30;;;;;;;7.03;3.53;;;16.30;99.90;;;;;;5025835;28;20103;-81
2022/06/11 00:10:56;;;;;;;7.28;3.50;;;16.30;99.90;;;;;;5025839;28;20025;-81
2022/06/11 00:13:22;;;;;;;5.18;4.18;;;16.30;99.90;;;;;;5024122;28;20060;-82
2022/06/11 00:15:50;;;;;;;7.88;4.30;;;16.30;99.90;;;;;;5020719;28;20393;-81
2022/06/11 00:18:17;;;;;;;8.90;4.10;;;16.30;99.90;;;;;;5020338;28;20045;-81
2022/06/11 00:20:43;;;;;;;6.72;3.85;;;16.30;99.90;;;;;;5022798;28;20034;-81
2022/06/11 00:23:08;;;;;;;6.25;3.53;;;16.30;99.90;;;;;;5026560;28;20022;-81
2022/06/11 00:25:35;;;;;;;7.32;3.40;;;16.30;99.90;;;;;;5025927;28;20040;-81
2022/06/11 00:28:03;;;;;;;8.20;4.15;;;16.30;99.90;;;;;;5019132;28;20339;-81
2022/06/11 00:30:30;;;;;;;7.80;3.90;;;16.30;99.90;;;;;;5023172;28;20121;-81
2022/06/11 00:32:56;;;;;;;7.90;3.97;;;16.20;99.90;;;;;;5023634;28;20079;-81
2022/06/11 00:35:24;;;;;;;12.45;4.35;;;16.20;99.90;;;;;;5007051;28;20049;-81
2022/06/11 00:37:50;;;;;;;7.75;3.97;;;16.20;99.90;;;;;;5018846;28;20009;-81
2022/06/11 00:40:19;;;;;;;8.73;4.38;;;16.20;99.90;;;;;;5016084;28;20060;-81
2022/06/11 00:42:45;;;;;;;12.77;4.70;;;16.20;99.90;;;;;;5027044;28;20033;-81
2022/06/11 00:45:20;;;;;;;8.57;4.15;;;16.20;99.90;;;;;;5022931;28;20026;-81
2022/06/11 00:47:51;;;;;;;7.35;3.72;;;16.20;99.90;;;;;;5020458;28;20030;-81
2022/06/11 00:50:33;;;;;;;9.25;4.57;;;16.20;99.90;;;;;;5022833;28;20029;-81
2022/06/11 00:53:00;;;;;;;10.52;4.95;;;16.20;99.90;;;;;;5022828;28;20057;-81
2022/06/11 00:55:31;;;;;;;9.13;5.18;;;16.20;99.90;;;;;;5026377;28;20097;-81
2022/06/11 00:57:58;;;;;;;7.90;5.20;;;16.20;99.90;;;;;;5021744;28;20029;-81
2022/06/11 01:00:32;;;;;;;8.82;4.47;;;16.20;99.90;;;;;;5025010;28;20125;-81
2022/06/11 01:02:57;;;;;;;;;;;16.20;99.90;;;;;;5014801;28;20104;-81
2022/06/11 01:05:28;;;;;;;6.90;3.95;;;16.20;99.90;;;;;;5028927;28;20035;-81
2022/06/11 01:08:02;;;;;;;8.38;3.65;;;16.20;99.90;;;;;;5016071;28;20030;-81
2022/06/11 01:10:28;;;;;;;8.15;3.70;;;16.20;99.90;;;;;;5021868;28;20030;-81
2022/06/11 01:13:32;;;;;;;8.05;3.50;;;16.20;99.90;;;;;;5027289;28;20497;-82
2022/06/11 01:16:34;;;;;;;6.75;3.28;;;16.20;99.90;;;;;;4988734;28;20048;-81
2022/06/11 01:19:29;;;;;;;8.60;3.80;;;16.20;99.90;;;;;;5010972;28;20030;-81
2022/06/11 01:22:00;;;;;;;5.90;3.10;;;16.20;99.90;;;;;;5024247;28;20083;-81
2022/06/11 01:24:41;;;;;;;5.57;3.03;;;16.10;99.90;;;;;;5026949;28;20493;-81
2022/06/11 01:27:09;;;;;;;6.63;3.03;;;16.10;99.90;;;;;;5026500;28;20033;-81
2022/06/11 01:29:35;;;;;;;6.20;3.00;;;16.10;99.90;;;;;;5025890;28;20052;-81
2022/06/11 01:32:40;;;;;;;7.88;3.70;;;16.10;99.90;;;;;;5026968;28;20056;-81
2022/06/11 01:35:25;;;;;;;9.90;3.53;;;16.10;99.90;;;;;;5016222;28;20041;-81
2022/06/11 01:37:57;;;;;;;7.00;3.38;;;16.00;99.90;;;;;;5015864;28;20136;-81
2022/06/11 01:40:38;;;;;;;7.38;3.20;;;16.00;99.90;;;;;;5009375;28;20032;-81
2022/06/11 01:43:28;;;;;;;8.38;3.47;;;16.00;99.90;;;;;;5022913;28;20060;-81
2022/06/11 01:45:54;;;;;;;7.50;3.25;;;16.00;99.90;;;;;;5016821;28;20041;-81
2022/06/11 01:48:24;;;;;;;9.77;3.50;;;15.90;99.90;;;;;;5019827;28;20029;-81
2022/06/11 01:50:57;;;;;;;6.00;3.13;;;15.80;99.90;;;;;;5025645;28;20025;-81
2022/06/11 01:53:41;;;;;;;6.78;3.50;;;15.90;99.90;;;;;;5015043;28;20018;-81
2022/06/11 01:56:24;;;;;;;4.22;3.03;;;15.80;99.90;;;;;;5021968;28;20609;-81
2022/06/11 01:58:56;;;;;;;11.48;3.28;;;15.80;99.90;;;;;;5015956;28;20261;-81
2022/06/11 02:01:34;;;;;;;9.07;3.30;;;15.80;99.90;;;;;;5023561;28;20543;-81
2022/06/11 02:04:14;;;;;;;8.63;3.35;;;15.80;99.90;;;;;;5019664;28;20062;-81
2022/06/11 02:06:52;;;;;;;7.32;3.20;;;15.70;99.90;;;;;;5021045;28;20030;-81
2022/06/11 02:09:20;;;;;;;4.75;2.83;;;15.70;99.90;;;;;;5018218;28;20022;-81
2022/06/11 02:11:50;;;;;;;5.60;3.00;;;15.70;99.90;;;;;;5024640;28;20025;-81
2022/06/11 02:14:23;;;;;;;7.70;3.10;;;15.70;99.90;;;;;;5021466;28;20033;-81
2022/06/11 02:17:05;;;;;;;6.88;3.17;;;15.70;99.90;;;;;;5014445;28;20038;-81
2022/06/11 02:19:36;;;;;;;6.28;3.20;;;15.60;99.90;;;;;;5017248;28;20199;-81
2022/06/11 02:22:17;;;;;;;7.18;3.38;;;15.60;99.90;;;;;;5015178;28;20034;-81
2022/06/11 02:24:56;;;;;;;7.85;3.20;;;15.50;99.90;;;;;;5020896;28;20524;-81
2022/06/11 02:27:25;;;;;;;6.32;3.30;;;15.50;99.90;;;;;;5025640;28;20036;-81
2022/06/11 02:29:53;;;;;;;7.22;3.60;;;15.50;99.90;;;;;;5020316;28;20041;-81
2022/06/11 02:32:20;;;;;;;5.90;3.30;;;15.40;99.90;;;;;;5019700;28;20025;-81
2022/06/11 02:34:51;;;;;;;6.97;3.55;;;15.40;99.90;;;;;;5027205;28;20046;-81
2022/06/11 02:37:37;;;;;;;11.40;4.20;;;15.40;99.90;;;;;;5011512;28;20022;-81
2022/06/11 02:40:12;;;;;;;8.20;3.80;;;15.40;99.90;;;;;;5014719;28;20548;-81
2022/06/11 02:42:38;;;;;;;8.50;3.85;;;15.40;99.90;;;;;;5014672;28;20056;-81
2022/06/11 02:45:05;;;;;;;5.60;3.78;;;15.40;99.90;;;;;;5030240;28;20037;-81
2022/06/11 02:47:30;;;;;;;5.43;3.72;;;15.40;99.90;;;;;;5029785;28;20555;-82
2022/06/11 02:49:56;;;;;;;5.60;3.92;;;15.30;99.90;;;;;;5019582;28;20041;-81
2022/06/11 02:52:24;;;;;;;8.38;3.95;;;15.30;99.90;;;;;;5022287;28;20026;-81
2022/06/11 02:54:51;;;;;;;6.03;3.75;;;15.30;99.90;;;;;;5011891;28;20032;-81
2022/06/11 02:57:21;;;;;;;7.93;3.80;;;15.30;99.90;;;;;;5011834;28;20105;-81
2022/06/11 02:59:48;;;;;;;5.85;3.70;;;15.20;99.90;;;;;;5008938;28;20177;-82
2022/06/11 03:02:14;;;;;;;7.68;3.70;;;15.20;99.90;;;;;;5013061;28;20057;-81
2022/06/11 03:04:40;;;;;;;6.88;3.63;;;15.20;99.90;;;;;;5011163;28;20084;-81
2022/06/11 03:07:08;;;;;;;8.02;4.05;;;15.20;99.90;;;;;;5026431;28;20519;-81
2022/06/11 03:09:35;;;;;;;6.00;3.90;;;15.20;99.90;;;;;;5020123;28;20043;-81
2022/06/11 03:12:04;;;;;;;6.93;4.10;;;15.20;99.90;;;;;;5019934;28;20478;-81
2022/06/11 03:14:30;;;;;;;9.18;4.28;;;15.20;99.90;;;;;;5019358;28;20091;-81
2022/06/11 03:16:55;;;;;;;7.93;4.43;;;15.30;99.90;;;;;;5022694;28;20029;-81
2022/06/11 03:19:22;;;;;;;6.30;4.30;;;15.30;99.90;;;;;;5026136;28;20057;-81
2022/06/11 03:21:50;;;;;;;8.40;4.85;;;15.30;99.90;;;;;;5022162;28;20025;-81
2022/06/11 03:24:17;;;;;;;6.90;4.13;;;15.30;99.90;;;;;;5014883;28;20062;-81
2022/06/11 03:26:43;;;;;;;9.88;4.75;;;15.30;99.90;;;;;;5021542;28;20072;-81
2022/06/11 03:29:10;;;;;;;8.05;4.25;;;15.30;99.90;;;;;;5018050;28;20041;-81
2022/06/11 03:31:37;;;;;;;10.73;4.35;;;15.30;99.90;;;;;;5019646;28;20108;-81
2022/06/11 03:34:03;;;;;;;9.65;4.55;;;15.30;99.90;;;;;;5017667;28;20107;-81
2022/06/11 03:36:29;;;;;;;6.10;3.83;;;15.30;99.90;;;;;;5021503;28;20021;-81
2022/06/11 03:38:56;;;;;;;10.15;4.30;;;15.30;99.90;;;;;;5023161;28;21469;-81
2022/06/11 03:41:22;;;;;;;6.60;3.88;;;15.30;99.90;;;;;;5018911;28;20061;-81
2022/06/11 03:43:50;;;;;;;5.75;3.70;;;15.20;99.90;;;;;;5023081;28;20026;-81
2022/06/11 03:46:16;;;;;;;10.30;4.60;;;15.30;99.90;;;;;;5026530;28;20028;-81
2022/06/11 03:48:42;;;;;;;7.90;4.05;;;15.30;99.90;;;;;;5025282;28;20049;-81
2022/06/11 03:51:09;;;;;;;8.85;3.60;;;15.30;99.90;;;;;;5015098;28;20030;-81
2022/06/11 03:53:37;;;;;;;7.00;4.18;;;15.30;99.90;;;;;;5023459;28;20029;-81
2022/06/11 03:56:05;;;;;;;6.43;4.28;;;15.30;99.90;;;;;;5027077;28;20040;-81
2022/06/11 03:58:32;;;;;;;4.38;3.53;;;15.30;99.90;;;;;;5014498;28;20048;-81
2022/06/11 04:01:16;;;;;;;5.53;3.72;;;15.30;99.90;;;;;;5015570;28;20519;-81
2022/06/11 04:03:51;;;;;;;8.90;4.20;;;15.30;99.90;;;;;;5026641;28;20810;-81
2022/06/11 04:06:20;;;;;;;6.22;3.47;;;15.20;99.90;;;;;;5017496;28;20070;-81
2022/06/11 04:08:46;;;;;;;7.70;4.28;;;15.20;99.90;;;;;;5020355;28;20481;-81
2022/06/11 04:11:13;;;;;;;8.85;4.07;;;15.20;99.90;;;;;;5024979;28;20034;-81
2022/06/11 04:13:40;;;;;;;6.15;3.70;;;15.30;99.90;;;;;;5016363;28;20030;-81
2022/06/11 04:16:06;;;;;;;6.03;4.10;;;15.30;99.90;;;;;;5020892;28;20678;-81
2022/06/11 04:18:43;;;;;;;6.35;3.60;;;15.30;99.90;;;;;;5019523;28;20109;-81
2022/06/11 04:21:12;;;;;;;7.97;3.78;;;15.30;99.90;;;;;;5023540;28;20120;-81
2022/06/11 04:23:40;;;;;;;5.03;3.20;;;15.40;99.90;;;;;;5025914;28;20034;-81
2022/06/11 04:26:09;;;;;;;7.82;3.70;;;15.40;99.90;;;;;;5036039;28;20036;-81
2022/06/11 04:28:35;;;;;;;12.15;3.63;;;15.40;99.90;;;;;;5031047;28;20876;-81
2022/06/11 04:31:03;;;;;;;11.80;3.70;;;15.40;99.90;;;;;;5022196;28;20049;-81
2022/06/11 04:33:29;;;;;;;8.18;3.88;;;15.40;99.90;;;;;;5025322;28;20118;-81
2022/06/11 04:35:55;;;;;;;5.93;3.70;;;15.40;99.90;;;;;;5023725;28;20037;-81
2022/06/11 04:38:21;;;;;;;6.13;3.53;;;15.40;99.90;;;;;;5024958;28;20671;-81
2022/06/11 04:40:47;;;;;;;7.93;3.85;;;15.40;99.90;;;;;;5024649;28;20033;-80
2022/06/11 04:43:13;;;;;;;8.85;3.47;;;15.50;99.90;;;;;;5016362;28;20087;-80
2022/06/11 04:45:40;;;;;;;6.30;3.63;;;15.70;99.90;;;;;;5022768;28;20029;-81
2022/06/11 04:48:06;;;;;;;6.80;3.47;;;15.90;99.90;;;;;;5025075;28;20028;-81
2022/06/11 04:50:33;;;;;;;5.72;3.20;;;16.20;99.90;;;;;;5024480;28;20112;-80
2022/06/11 04:52:58;;;;;;;7.22;3.50;;;16.50;99.90;;;;;;5023193;28;20446;-80
2022/06/11 04:55:24;;;;;;;8.20;3.15;;;16.90;99.90;;;;;;5021041;28;20114;-80
2022/06/11 04:57:50;;;;;;;6.68;3.33;;;17.30;99.90;;;;;;5013783;28;20030;-80
2022/06/11 05:00:22;;;;;;;6.65;3.20;;;17.70;99.90;;;;;;5025318;28;20029;-80
2022/06/11 05:02:48;;;;;;;8.52;3.47;;;17.90;99.90;;;;;;5027688;28;20032;-80
2022/06/11 05:05:14;;;;;;;6.63;3.00;;;18.00;99.90;;;;;;5024042;28;20025;-80
2022/06/11 05:07:41;;;;;;;9.20;3.25;;;18.00;99.90;;;;;;5013936;28;20022;-80
2022/06/11 05:10:08;;;;;;;7.88;3.50;;;18.00;99.90;;;;;;5011887;28;20113;-82
2022/06/11 05:12:34;;;;;;;7.45;3.63;;;18.00;99.90;;;;;;4667888;28;9999733;-80
2022/06/11 05:14:59;;;;;;;10.00;3.30;;;18.00;99.90;;;;;;5013891;28;20033;-81
2022/06/11 05:17:25;;;;;;;6.60;3.20;;;17.90;99.90;;;;;;5015331;28;20063;-81
2022/06/11 05:19:51;;;;;;;10.40;3.67;;;17.90;99.90;;;;;;5017117;28;20490;-81
2022/06/11 05:22:16;;;;;;;5.50;3.00;;;17.80;99.90;;;;;;5019274;28;20033;-81
2022/06/11 05:24:43;;;;;;;8.93;3.67;;;17.80;99.90;;;;;;5016181;28;20060;-81
2022/06/11 05:27:15;;;;;;;7.13;3.15;;;17.80;99.90;;;;;;5022354;28;20021;-81
2022/06/11 05:29:48;;;;;;;6.50;3.25;;;17.70;99.90;;;;;;5020454;28;20029;-81
2022/06/11 05:32:16;;;;;;;7.45;3.15;;;17.60;99.90;;;;;;5020822;28;20147;-80
2022/06/11 05:34:42;;;;;;;4.93;2.83;;;17.50;99.90;;;;;;5013498;28;20053;-80
2022/06/11 05:37:09;;;;;;;4.32;2.90;;;17.60;99.90;;;;;;5019620;28;20028;-80
2022/06/11 05:39:35;;;;;;;7.32;3.70;;;17.50;99.90;;;;;;5023961;28;20029;-80
2022/06/11 05:42:01;;;;;;;5.13;3.03;;;17.50;99.90;;;;;;5020778;28;20151;-80
2022/06/11 05:44:26;;;;;;;6.38;3.38;;;17.50;99.90;;;;;;5024705;28;20112;-80
2022/06/11 05:46:53;;;;;;;11.52;4.03;;;17.50;99.90;;;;;;5026510;28;20112;-80
2022/06/11 05:49:25;;;;;;;5.97;3.28;;;17.50;99.90;;;;;;5024396;28;20456;-80
2022/06/11 05:51:54;;;;;;;8.73;3.53;;;17.50;99.90;;;;;;5022293;28;20013;-80
2022/06/11 05:54:27;;;;;;;6.22;3.10;;;17.50;99.90;;;;;;5023959;28;20037;-80
2022/06/11 05:56:54;;;;;;;8.48;3.22;;;17.50;99.90;;;;;;5025555;28;20396;-80
2022/06/11 05:59:29;;;;;;;6.15;3.30;;;17.50;99.90;;;;;;5019696;28;20042;-80
2022/06/11 06:01:56;;;;;;;7.47;3.60;;;17.50;99.90;;;;;;5025722;28;20045;-80
2022/06/11 06:04:21;;;;;;;6.50;3.10;;;17.50;99.90;;;;;;5023365;28;20052;-80
2022/06/11 06:06:47;;;;;;;6.85;3.30;;;17.60;99.90;;;;;;5021869;28;20022;-80
2022/06/11 06:09:13;;;;;;;8.88;3.03;;;17.60;99.90;;;;;;5021962;28;20044;-80
2022/06/11 06:11:39;;;;;;;5.10;2.90;;;17.60;99.90;;;;;;5023850;28;20041;-80
2022/06/11 06:14:05;;;;;;;6.20;3.60;;;17.70;99.90;;;;;;5022184;28;20034;-80
2022/06/11 06:16:32;;;;;;;5.35;3.10;;;17.70;99.90;;;;;;5021725;28;20025;-81
2022/06/11 06:19:02;;;;;;;6.10;2.70;;;17.80;99.90;;;;;;5024935;28;20033;-81
2022/06/11 06:21:31;;;;;;;7.00;3.50;;;17.80;99.90;;;;;;5021507;28;20037;-81
2022/06/11 06:23:57;;;;;;;7.32;3.70;;;17.80;99.90;;;;;;5023239;28;20045;-81
2022/06/11 06:26:23;;;;;;;5.85;3.10;;;17.90;99.90;;;;;;5026500;28;20397;-81
2022/06/11 06:28:49;;;;;;;8.40;3.83;;;18.00;99.90;;;;;;5019271;28;20486;-81
2022/06/11 06:31:16;;;;;;;7.72;3.65;;;18.00;99.90;;;;;;5015678;28;20081;-81
2022/06/11 06:33:43;;;;;;;8.52;3.50;;;18.00;99.90;;;;;;5017822;28;20422;-81
2022/06/11 06:36:10;;;;;;;6.03;3.08;;;18.10;99.90;;;;;;5013950;28;20105;-81
2022/06/11 06:38:37;;;;;;;8.48;3.40;;;18.10;99.90;;;;;;5024100;28;20059;-81
2022/06/11 06:41:04;;;;;;;8.40;3.22;;;18.10;99.90;;;;;;5021894;28;20037;-81
2022/06/11 06:43:29;;;;;;;6.15;3.58;;;18.20;99.90;;;;;;5021945;28;20032;-81
2022/06/11 06:45:55;;;;;;;8.43;3.53;;;18.20;99.90;;;;;;5025825;28;20033;-81
2022/06/11 06:48:21;;;;;;;9.35;3.90;;;18.20;99.90;;;;;;5022503;28;20021;-81
2022/06/11 06:50:46;;;;;;;10.38;3.70;;;18.20;99.90;;;;;;5024620;28;20033;-81
2022/06/11 06:53:13;;;;;;;8.55;3.70;;;18.20;99.90;;;;;;5020779;28;20289;-81
2022/06/11 06:55:39;;;;;;;6.57;3.33;;;18.30;99.90;;;;;;5025709;28;20025;-81
2022/06/11 06:58:05;;;;;;;7.22;3.38;;;18.30;99.90;;;;;;5024902;28;20036;-85
2022/06/11 07:00:30;;;;;;;8.32;3.67;;;18.30;99.90;;;;;;5019693;28;20029;-85
2022/06/11 07:02:56;;;;;;;6.15;3.35;;;18.40;99.90;;;;;;5025709;28;20033;-84
2022/06/11 07:05:23;;;;;;;12.60;3.72;;;18.50;99.90;;;;;;5017036;28;20033;-84
2022/06/11 07:07:49;;;;;;;6.82;3.30;;;18.50;99.90;;;;;;5020244;28;20025;-85
2022/06/11 07:10:17;;;;;;;10.68;3.85;;;18.60;99.90;;;;;;5022550;28;20506;-85
2022/06/11 07:12:43;;;;;;;7.40;3.50;;;18.50;99.90;;;;;;5025340;28;20030;-84
2022/06/11 07:15:10;;;;;;;6.20;3.22;;;18.60;99.90;;;;;;5029829;28;20079;-84
2022/06/11 07:17:41;;;;;;;10.98;4.25;;;18.60;99.90;;;;;;5025535;28;20029;-84
2022/06/11 07:20:13;;;;;;;8.90;4.25;;;18.70;99.90;;;;;;5026171;28;20433;-83
2022/06/11 07:22:45;;;;;;;10.30;3.50;;;18.80;99.90;;;;;;5029031;28;20399;-83
2022/06/11 07:25:12;;;;;;;8.20;3.47;;;18.80;99.90;;;;;;5018673;28;20390;-83
2022/06/11 07:27:41;;;;;;;8.43;3.78;;;18.90;99.90;;;;;;5016741;28;20106;-83
2022/06/11 07:30:14;;;;;;;8.13;3.50;;;19.00;99.90;;;;;;5026704;28;20026;-84
2022/06/11 07:32:42;;;;;;;13.32;4.38;;;19.10;99.90;;;;;;5025487;28;20104;-83
2022/06/11 07:35:11;;;;;;;7.72;3.50;;;19.00;99.90;;;;;;5026099;28;20029;-72
2022/06/11 07:37:38;;;;;;;9.68;4.00;;;19.10;99.90;;;;;;5025195;28;20041;-72
2022/06/11 07:40:06;;;;;;;8.68;3.67;;;19.10;99.90;;;;;;5014536;28;20038;-72
2022/06/11 07:42:32;;;;;;;7.70;3.80;;;19.20;99.90;;;;;;5022135;28;20029;-72
2022/06/11 07:44:57;;;;;;;11.00;4.00;;;19.20;99.90;;;;;;5020118;28;20033;-72
2022/06/11 07:50:11;;;;;;;13.27;4.40;;;19.20;99.90;;;;;;5020678;28;20620;-72
2022/06/11 07:52:41;;;;;;;11.88;4.07;;;19.10;99.90;;;;;;5019586;28;20055;-72
2022/06/11 07:55:09;;;;;;;10.30;3.92;;;19.20;99.90;;;;;;5021260;28;20075;-71
2022/06/11 07:57:34;;;;;;;9.30;4.25;;;19.20;99.90;;;;;;5024492;28;20025;-71
2022/06/11 08:00:01;;;;;;;8.90;3.95;;;19.30;99.90;;;;;;5023036;28;20025;-72
2022/06/11 08:02:26;;;;;;;6.63;3.97;;;19.40;99.90;;;;;;5023609;28;20040;-71
2022/06/11 08:04:52;;;;;;;9.52;3.95;;;19.60;99.90;;;;;;5022269;28;20029;-78
2022/06/11 08:07:19;;;;;;;5.88;3.40;;;19.70;99.90;;;;;;5019584;28;20938;-72
2022/06/11 08:09:44;;;;;;;10.88;3.97;;;19.90;99.90;;;;;;5016987;28;20690;-72
2022/06/11 08:12:10;;;;;;;9.52;3.78;;;20.10;99.90;;;;;;5023954;28;20017;-72
2022/06/11 08:14:36;;;;;;;9.63;3.47;;;20.30;99.90;;;;;;5019386;28;20097;-71
2022/06/11 08:17:01;;;;;;;7.60;3.30;;;20.40;99.90;;;;;;5019853;28;20049;-72
2022/06/11 08:19:27;;;;;;;5.82;2.92;;;20.60;99.90;;;;;;5023478;28;20037;-72
2022/06/11 08:21:55;;;;;;;7.18;3.40;;;20.80;99.90;;;;;;5020740;28;20117;-71
2022/06/11 08:24:22;;;;;;;7.07;3.13;;;21.00;99.90;;;;;;5022579;28;20038;-71
2022/06/11 08:26:47;;;;;;;5.50;2.83;;;21.10;99.90;;;;;;5027569;28;20037;-71
2022/06/11 08:29:13;;;;;;;7.30;3.03;;;21.40;99.90;;;;;;5022773;28;20029;-72
2022/06/11 08:31:38;;;;;;;5.35;2.60;;;21.60;99.90;;;;;;5017192;28;20025;-72
2022/06/11 08:34:04;;;;;;;5.55;3.20;;;21.70;99.90;;;;;;5022876;28;20049;-71
2022/06/11 08:36:30;;;;;;;8.82;3.20;;;21.80;99.90;;;;;;5026623;28;20417;-72
2022/06/11 08:38:55;;;;;;;5.93;2.95;;;21.90;99.90;;;;;;5020882;28;20077;-71
2022/06/11 08:41:27;;;;;;;5.13;2.83;;;22.10;99.90;;;;;;5016957;28;20030;-71
2022/06/11 08:44:01;;;;;;;7.47;3.50;;;22.20;99.90;;;;;;5020757;28;20041;-72
2022/06/11 08:46:32;;;;;;;9.80;3.05;;;22.30;99.90;;;;;;5016102;28;20040;-72
2022/06/11 08:49:03;;;;;;;9.45;2.92;;;22.60;99.90;;;;;;5015542;28;20509;-72
2022/06/11 08:51:53;;;;;;;5.70;2.67;;;22.90;99.90;;;;;;5028864;28;20033;-72
2022/06/11 08:54:35;;;;;;;7.13;2.50;;;23.10;99.90;;;;;;5024328;28;20041;-72
2022/06/11 08:57:16;;;;;;;8.10;2.67;;;23.10;99.90;;;;;;5024817;28;20030;-72
2022/06/11 09:00:08;;;;;;;5.03;2.70;;;23.10;99.90;;;;;;5024847;28;20028;-72
2022/06/11 09:03:11;;;;;;;5.38;2.70;;;23.10;99.90;;;;;;5020865;28;20037;-72
2022/06/11 09:05:46;;;;;;;4.82;2.38;;;23.00;99.90;;;;;;5016943;28;20029;-73
2022/06/11 09:08:34;;;;;;;7.03;2.88;;;23.00;99.90;;;;;;5022031;28;20028;-72
2022/06/11 09:11:18;;;;;;;5.32;2.15;;;23.20;99.90;;;;;;5014317;28;20026;-72
2022/06/11 09:14:00;;;;;;;8.73;1.95;;;23.40;99.90;;;;;;5020198;28;20504;-72
2022/06/11 09:16:25;;;;;;;6.75;2.40;;;23.40;99.90;;;;;;5022239;28;20112;-72
2022/06/11 09:19:11;;;;;;;6.70;2.35;;;23.40;99.90;;;;;;5020455;28;20167;-71
2022/06/11 09:21:46;;;;;;;5.18;2.05;;;23.30;99.90;;;;;;5025844;28;20041;-71
2022/06/11 09:24:24;;;;;;;8.57;2.45;;;23.10;99.90;;;;;;5021277;28;20440;-72
2022/06/11 09:27:00;;;;;;;5.93;2.30;;;23.00;99.90;;;;;;5023370;28;20032;-72
2022/06/11 09:29:36;;;;;;;4.22;1.90;;;22.90;99.90;;;;;;5021612;28;20060;-72
2022/06/11 09:32:22;;;;;;;5.82;1.75;;;22.90;99.90;;;;;;5025526;28;20035;-71
2022/06/11 09:35:21;;;;;;;5.63;1.45;;;22.90;99.90;;;;;;5021819;28;20079;-71
2022/06/11 09:38:25;;;;;;;6.95;1.67;;;23.00;99.90;;;;;;5021985;28;20029;-71
2022/06/11 09:40:56;;;;;;;6.97;1.70;;;23.20;99.90;;;;;;5018072;28;20037;-71
2022/06/11 09:43:26;;;;;;;4.10;1.58;;;23.50;99.90;;;;;;5023454;28;20033;-71
2022/06/11 09:46:05;;;;;;;7.93;1.90;;;23.80;99.90;;;;;;5023571;28;20025;-71
2022/06/11 09:48:34;;;;;;;2.85;1.63;;;;;;;;;;5020980;28;20493;-70
2022/06/11 09:51:57;;;;;;;3.15;1.48;;;24.10;99.90;;;;;;5021150;28;20026;-70
2022/06/11 09:54:52;;;;;;;2.40;1.00;;;24.20;99.90;;;;;;4960061;28;20426;-70
2022/06/11 09:57:42;;;;;;;2.95;1.40;;;24.50;99.90;;;;;;5017066;28;20026;-70
2022/06/11 10:00:22;;;;;;;4.85;1.17;;;24.80;99.90;;;;;;5017176;28;20037;-70
2022/06/11 10:03:17;;;;;;;2.53;1.20;;;24.90;99.90;;;;;;5017620;28;20037;-70
2022/06/11 10:05:59;;;;;;;4.03;1.20;;;24.80;99.90;;;;;;5025291;28;20087;-71
2022/06/11 10:08:37;;;;;;;3.60;1.00;;;24.80;99.90;;;;;;5019775;28;20083;-71
2022/06/11 10:11:06;;;;;;;2.80;1.15;;;24.90;99.90;;;;;;5021082;28;21383;-69
2022/06/11 10:13:47;;;;;;;2.90;1.08;;;25.20;99.90;;;;;;5019898;28;20025;-70
2022/06/11 10:16:20;;;;;;;1.35;0.68;;;25.30;99.90;;;;;;5012963;28;20036;-69
2022/06/11 10:18:46;;;;;;;;;;;25.40;99.90;;;;;;5017897;28;20026;-69
2022/06/11 10:21:15;;;;;;;7.70;2.25;;;25.50;99.90;;;;;;5019011;28;19917;-71
2022/06/11 10:23:53;;;;;;;7.20;1.40;;;25.70;99.90;;;;;;5018694;28;20026;-69
2022/06/11 10:26:26;;;;;;;7.38;1.10;;;25.80;99.90;;;;;;5019612;28;20088;-70
2022/06/11 10:29:10;;;;;;;0.88;0.80;;;26.20;99.90;;;;;;5016755;28;20488;-70
2022/06/11 10:31:55;;;;;;;9.93;3.55;;;26.40;99.90;;;;;;5019108;28;20032;-69
2022/06/11 10:34:28;;;;;;;6.95;4.57;;;26.60;99.90;;;;;;5026530;28;20042;-70
2022/06/11 10:37:18;;;;;;;4.53;1.40;;;26.60;99.90;;;;;;5018755;28;20036;-69
2022/06/11 10:40:19;;;;;;;2.13;1.10;;;26.40;99.90;;;;;;5015826;28;20041;-70
2022/06/11 10:43:00;;;;;;;3.33;0.95;;;26.30;99.90;;;;;;5021751;28;20033;-69
2022/06/11 10:45:26;;;;;;;0.90;0.60;;;26.30;99.90;;;;;;5022337;28;20116;-70
2022/06/11 10:47:55;;;;;;;3.67;1.10;;;26.40;99.90;;;;;;5021047;28;20069;-70
2022/06/11 10:50:33;;;;;;;3.33;1.10;;;26.40;88.50;;;;;;5019203;28;20021;-69
2022/06/11 10:53:06;;;;;;;2.55;1.05;;;26.60;92.40;;;;;;5026869;28;20048;-69
2022/06/11 10:56:15;;;;;;;1.92;1.08;;;26.70;92.80;;;;;;5012397;28;20029;-69
2022/06/11 10:58:53;;;;;;;2.38;1.10;;;26.60;90.20;;;;;;5022328;28;20121;-69
2022/06/11 11:01:27;;;;;;;1.77;0.80;;;26.40;86.20;;;;;;5028568;28;20029;-69
2022/06/11 11:04:18;;;;;;;2.45;0.68;;;26.30;87.70;;;;;;5024449;28;20025;-69
2022/06/11 11:06:44;;;;;;;2.88;0.80;;;26.30;95.50;;;;;;5021617;28;20513;-69
2022/06/11 11:09:21;;;;;;;1.15;0.70;;;26.20;94.70;;;;;;5025595;28;20116;-69
2022/06/11 11:11:50;;;;;;;1.55;0.80;;;26.10;92.90;;;;;;5027510;28;20017;-69
2022/06/11 11:14:26;;;;;;;1.33;0.63;;;26.00;92.70;;;;;;5020400;28;20026;-69
2022/06/11 11:16:58;;;;;;;1.13;0.70;;;26.00;91.60;;;;;;5026995;28;20042;-69
2022/06/11 11:19:33;;;;;;;3.05;0.75;;;25.90;91.10;;;;;;5020541;28;20029;-69
2022/06/11 11:22:04;;;;;;;1.52;0.50;;;26.00;91.70;;;;;;5025980;28;20029;-71
2022/06/11 11:24:30;;;;;;;3.00;0.50;;;26.10;91.60;;;;;;5029135;28;20029;-70
2022/06/11 11:27:00;;;;;;;0.88;0.60;;;26.10;90.40;;;;;;5022016;28;20037;-70
2022/06/11 11:29:33;;;;;;;3.10;0.70;;;26.30;89.50;;;;;;5013901;28;20017;-69
2022/06/11 11:32:06;;;;;;;;;;;26.40;89.10;;;;;;5028959;28;20032;-70
2022/06/11 11:34:43;;;;;;;1.10;0.80;;;26.80;89.80;;;;;;5028037;28;20292;-70
2022/06/11 11:37:12;;;;;;;2.47;0.70;;;27.20;87.00;;;;;;5009007;28;20034;-71
2022/06/11 11:39:47;;;;;;;1.80;0.90;;;27.40;86.30;;;;;;5026230;28;20029;-71
2022/06/11 11:42:17;;;;;;;0.68;0.63;;;27.60;90.20;;;;;;5024882;28;20607;-70
2022/06/11 11:44:50;;;;;;;1.40;0.60;;;27.60;87.30;;;;;;5025590;28;20068;-70
2022/06/11 11:47:27;;;;;;;0.82;0.52;;;27.50;86.50;;;;;;5020637;28;20037;-70
2022/06/11 11:50:13;;;;;;;1.50;0.68;;;27.40;87.50;;;;;;5023281;28;20100;-71
2022/06/11 11:52:46;;;;;;;1.90;0.50;;;27.40;86.50;;;;;;5002817;28;20041;-71
2022/06/11 11:55:25;;;;;;;1.13;0.65;;;27.40;85.40;;;;;;5014677;28;20034;-70
2022/06/11 11:58:01;;;;;;;0.80;0.55;;;27.40;84.20;;;;;;5027496;28;20061;-71
2022/06/11 12:00:50;;;;;;;2.42;0.77;;;27.50;85.00;;;;;;5023233;28;20041;-71
2022/06/11 12:03:30;;;;;;;2.22;0.63;;;27.80;83.10;;;;;;5023957;28;20568;-70
2022/06/11 12:05:58;;;;;;;2.03;0.52;;;27.70;83.30;;;;;;5026504;28;20460;-70
2022/06/11 12:08:31;;;;;;;1.90;0.60;;;27.40;80.40;;;;;;5026484;28;20111;-70
2022/06/11 12:11:00;;;;;;;;;;;27.30;84.40;;;;;;5027145;28;20061;-70
2022/06/11 12:13:29;;;;;;;2.97;0.80;;;27.10;83.90;;;;;;5019442;28;19909;-70
2022/06/11 12:15:59;;;;;;;3.65;0.77;;;27.00;86.00;;;;;;5021318;28;20080;-70
2022/06/11 12:18:42;;;;;;;7.10;0.80;;;27.00;85.70;;;;;;5024017;28;20472;-70
2022/06/11 12:21:17;;;;;;;1.15;0.70;;;27.00;72.00;;;;;;5011311;28;20018;-70
2022/06/11 12:23:50;;;;;;;0.93;0.70;;;27.20;71.90;;;;;;5018207;28;20386;-70
2022/06/11 12:26:28;;;;;;;1.95;0.80;;;27.10;73.90;;;;;;5020025;28;20029;-70
2022/06/11 12:29:05;;;;;;;1.00;0.68;;;26.80;72.50;;;;;;5026106;28;20026;-70
2022/06/11 12:31:31;;;;;;;0.90;0.70;;;26.70;73.90;;;;;;5016605;28;20537;-70
2022/06/11 12:33:58;;;;;;;1.92;0.70;;;27.20;75.20;;;;;;5023453;28;20052;-68
2022/06/11 12:36:45;;;;;;;1.70;0.60;;;27.20;73.70;;;;;;5025220;28;20056;-71
2022/06/11 12:39:31;;;;;;;1.75;0.50;;;27.50;74.20;;;;;;5017964;28;20037;-70
2022/06/11 12:42:15;;;;;;;1.70;0.50;;;27.80;68.70;;;;;;5017676;28;20498;-70
2022/06/11 12:44:57;;;;;;;0.30;0.30;;;27.80;68.00;;;;;;5026014;28;20039;-70
2022/06/11 12:47:51;;;;;;;1.05;0.50;;;27.80;68.00;;;;;;5026840;28;20113;-70
2022/06/11 12:50:38;;;;;;;0.93;0.50;;;27.70;66.60;;;;;;5026052;28;20053;-70
2022/06/11 12:53:21;;;;;;;0.65;0.40;;;27.70;67.70;;;;;;5017548;28;20043;-70
2022/06/11 12:55:55;;;;;;;;;;;27.80;68.50;;;;;;5021328;28;20071;-70
2022/06/11 12:58:21;;;;;;;0.88;0.50;;;28.20;67.00;;;;;;5017877;28;19940;-71
2022/06/11 13:00:57;;;;;;;0.55;0.35;;;28.40;64.90;;;;;;5024407;28;20485;-70
2022/06/11 13:03:50;;;;;;;1.92;0.50;;;28.30;64.90;;;;;;5024619;28;20022;-70
2022/06/11 13:06:44;;;;;;;1.05;0.50;;;28.10;64.20;;;;;;5013215;28;20645;-70
2022/06/11 13:09:38;;;;;;;0.60;0.50;;;27.90;65.80;;;;;;5018858;28;20029;-70
2022/06/11 13:12:27;;;;;;;1.58;0.60;;;27.70;66.70;;;;;;5020343;28;20041;-70
2022/06/11 13:15:22;;;;;;;0.88;0.60;;;27.50;66.40;;;;;;5015614;28;20029;-71
2022/06/11 13:18:06;;;;;;;1.85;0.65;;;27.50;67.60;;;;;;5013478;28;20033;-71